Time;durP1;ratioP1;P1;durP2;ratioP2;P2;SDS_P1;SDS_P2;PMS_P1;PMS_P2;Temp;Humidity;BMP_temperature;BMP_pressure;BME280_temperature;BME280_humidity;BME280_pressure;Samples;Min_cycle;Max_cycle;Signal;HPM_P1;HPM_P2
2022/05/01 00:02:05;;;;;;;7.15;5.10;;;;;;;;;;4794693;29;20187;-83
2022/05/01 00:04:37;;;;;;;6.07;4.80;;;;;;;;;;4787588;29;20031;-83
2022/05/01 00:07:06;;;;;;;7.85;5.50;;;;;;;;;;4792344;29;20038;-82
2022/05/01 00:09:39;;;;;;;6.82;5.28;;;;;;;;;;4802441;29;20066;-85
2022/05/01 00:12:07;;;;;;;8.35;5.45;;;;;;;;;;4797447;29;20083;-82
2022/05/01 00:14:40;;;;;;;7.82;5.40;;;;;;;;;;4779277;29;20532;-82
2022/05/01 00:17:09;;;;;;;7.72;5.57;;;;;;;;;;4791731;29;20054;-85
2022/05/01 00:19:37;;;;;;;6.15;5.00;;;;;;;;;;4782595;29;20470;-85
2022/05/01 00:22:02;;;;;;;7.47;5.07;;;;;;;;;;4794547;29;20035;-84
2022/05/01 00:24:28;;;;;;;8.00;5.25;;;;;;;;;;4801300;29;20023;-83
2022/05/01 00:26:53;;;;;;;8.65;5.85;;;;;;;;;;4797743;29;20031;-83
2022/05/01 00:29:19;;;;;;;7.45;5.57;;;;;;;;;;4783248;29;20039;-83
2022/05/01 00:31:44;;;;;;;6.72;4.72;;;;;;;;;;4797733;29;20035;-83
2022/05/01 00:36:54;;;;;;;8.77;5.75;;;;;;;;;;4797606;29;20045;-84
2022/05/01 00:39:19;;;;;;;9.20;5.78;;;;;;;;;;4781482;29;20549;-85
2022/05/01 00:41:46;;;;;;;7.28;5.35;;;;;;;;;;4796319;29;20474;-84
2022/05/01 00:44:16;;;;;;;7.55;5.05;;;;;;;;;;4795689;29;20058;-83
2022/05/01 00:46:46;;;;;;;8.57;6.07;;;;;;;;;;4797207;29;20050;-83
2022/05/01 00:49:15;;;;;;;9.20;5.82;;;;;;;;;;4794098;29;20379;-84
2022/05/01 00:51:48;;;;;;;9.82;6.00;;;;;;;;;;4777905;29;20058;-83
2022/05/01 00:54:20;;;;;;;8.35;5.10;;;;;;;;;;4785115;29;20117;-83
2022/05/01 00:56:49;;;;;;;8.98;5.63;;;;;;;;;;4784474;29;20039;-83
2022/05/01 00:59:14;;;;;;;7.88;5.93;;;;;;;;;;4798764;29;20038;-83
2022/05/01 01:01:44;;;;;;;9.55;6.10;;;;;;;;;;4796861;29;20031;-84
2022/05/01 01:04:10;;;;;;;8.43;5.80;;;;;;;;;;4799045;29;20117;-84
2022/05/01 01:06:39;;;;;;;9.60;5.97;;;;;;;;;;4795244;29;20438;-84
2022/05/01 01:09:05;;;;;;;9.35;6.00;;;;;;;;;;4782593;29;20034;-84
2022/05/01 01:11:31;;;;;;;8.90;5.82;;;;;;;;;;4800773;29;20042;-85
2022/05/01 01:13:58;;;;;;;7.10;5.18;;;;;;;;;;4793229;29;20063;-83
2022/05/01 01:16:24;;;;;;;9.65;5.68;;;;;;;;;;4798758;29;20486;-82
2022/05/01 01:18:49;;;;;;;7.18;5.00;;;;;;;;;;4798449;29;20039;-83
2022/05/01 01:21:14;;;;;;;8.27;5.68;;;;;;;;;;4797101;29;21874;-83
2022/05/01 01:23:42;;;;;;;8.55;6.25;;;;;;;;;;4796694;29;20031;-83
2022/05/01 01:26:09;;;;;;;8.23;6.07;;;;;;;;;;4800251;29;20035;-85
2022/05/01 01:28:39;;;;;;;8.98;5.68;;;;;;;;;;4784956;29;20034;-83
2022/05/01 01:34:04;;;;;;;8.10;5.72;;;;;;;;;;4798065;29;20056;-84
2022/05/01 01:36:32;;;;;;;7.40;5.38;;;;;;;;;;4794861;29;20113;-83
2022/05/01 01:38:58;;;;;;;8.55;5.35;;;;;;;;;;4797556;29;20057;-84
2022/05/01 01:41:29;;;;;;;8.57;5.68;;;;;;;;;;4798927;29;20031;-85
2022/05/01 01:43:55;;;;;;;8.60;5.47;;;;;;;;;;4789884;29;20074;-83
2022/05/01 01:46:20;;;;;;;7.68;5.28;;;;;;;;;;4765353;30;20032;-83
2022/05/01 01:48:46;;;;;;;8.95;5.40;;;;;;;;;;4765794;29;20434;-82
2022/05/01 01:51:13;;;;;;;7.63;5.72;;;;;;;;;;4780739;29;20028;-85
2022/05/01 01:53:39;;;;;;;7.95;5.70;;;;;;;;;;4779785;29;20092;-83
2022/05/01 01:56:07;;;;;;;8.05;6.15;;;;;;;;;;4778771;29;20096;-85
2022/05/01 01:58:32;;;;;;;7.30;5.15;;;;;;;;;;4766586;30;20439;-83
2022/05/01 02:00:59;;;;;;;8.02;5.75;;;;;;;;;;4760472;29;20163;-82
2022/05/01 02:03:25;;;;;;;8.00;5.63;;;;;;;;;;4760883;30;20510;-84
2022/05/01 02:05:51;;;;;;;7.60;5.32;;;;;;;;;;4775029;29;20039;-84
2022/05/01 02:08:17;;;;;;;7.85;5.40;;;;;;;;;;4764992;30;20027;-82
2022/05/01 02:10:44;;;;;;;9.45;5.75;;;;;;;;;;4762017;29;20092;-85
2022/05/01 02:13:09;;;;;;;8.60;5.95;;;;;;;;;;4784061;29;20574;-84
2022/05/01 02:15:38;;;;;;;8.05;5.85;;;;;;;;;;4776970;29;20027;-84
2022/05/01 02:18:05;;;;;;;8.80;6.15;;;;;;;;;;4776818;29;20038;-85
2022/05/01 02:21:34;;;;;;;8.93;5.97;;;;;;;;;;4764747;29;20729;-84
2022/05/01 02:23:18;;;;;;;9.13;5.88;;;;;;;;;;4782300;29;20050;-83
2022/05/01 02:25:43;;;;;;;9.43;5.93;;;;;;;;;;4780087;29;20042;-85
2022/05/01 02:28:10;;;;;;;8.35;6.00;;;;;;;;;;4779676;29;20395;-82
2022/05/01 02:30:36;;;;;;;8.68;5.30;;;;;;;;;;4778964;29;20038;-85
2022/05/01 02:33:02;;;;;;;7.57;5.65;;;;;;;;;;4761523;29;20034;-84
2022/05/01 02:35:27;;;;;;;7.53;5.55;;;;;;;;;;4778171;29;20035;-85
2022/05/01 02:37:52;;;;;;;8.38;5.50;;;;;;;;;;4779060;29;20534;-83
2022/05/01 02:40:18;;;;;;;8.77;5.85;;;;;;;;;;4765016;29;20167;-83
2022/05/01 02:42:43;;;;;;;8.60;6.13;;;;;;;;;;4783549;29;20032;-82
2022/05/01 02:45:10;;;;;;;9.50;6.50;;;;;;;;;;4779559;29;20390;-84
2022/05/01 02:47:35;;;;;;;9.63;6.82;;;;;;;;;;4795203;29;20026;-84
2022/05/01 02:50:01;;;;;;;9.65;6.90;;;;;;;;;;4798261;29;20058;-83
2022/05/01 02:52:26;;;;;;;9.82;6.93;;;;;;;;;;4782115;29;20770;-83
2022/05/01 02:54:51;;;;;;;10.07;7.15;;;;;;;;;;4781835;29;20490;-85
2022/05/01 02:57:17;;;;;;;9.93;6.78;;;;;;;;;;4779880;29;20042;-84
2022/05/01 02:59:42;;;;;;;9.55;6.15;;;;;;;;;;4795655;29;20061;-83
2022/05/01 03:02:08;;;;;;;10.02;6.60;;;;;;;;;;4798275;29;20034;-83
2022/05/01 03:04:34;;;;;;;10.80;6.53;;;;;;;;;;4782440;29;20039;-83
2022/05/01 03:07:00;;;;;;;9.00;6.43;;;;;;;;;;4788378;29;20437;-83
2022/05/01 03:09:25;;;;;;;9.15;6.75;;;;;;;;;;4795188;29;20027;-83
2022/05/01 03:11:50;;;;;;;9.80;6.53;;;;;;;;;;4799138;29;20398;-84
2022/05/01 03:14:16;;;;;;;12.48;7.03;;;;;;;;;;4798006;29;20397;-84
2022/05/01 03:16:41;;;;;;;8.60;6.10;;;;;;;;;;4799667;29;20059;-84
2022/05/01 03:24:36;;;;;;;10.13;6.88;;;;;;;;;;4796929;29;20045;-85
2022/05/01 03:27:02;;;;;;;9.63;6.50;;;;;;;;;;4785712;29;20030;-83
2022/05/01 03:29:27;;;;;;;10.25;6.90;;;;;;;;;;4796042;29;20042;-82
2022/05/01 03:31:53;;;;;;;11.73;7.35;;;;;;;;;;4792439;29;20470;-84
2022/05/01 03:34:18;;;;;;;9.82;6.75;;;;;;;;;;4777796;29;20501;-83
2022/05/01 03:36:47;;;;;;;9.15;6.32;;;;;;;;;;4783012;29;20031;-85
2022/05/01 03:39:13;;;;;;;9.55;6.80;;;;;;;;;;4777354;29;20066;-85
2022/05/01 03:41:39;;;;;;;9.40;6.85;;;;;;;;;;4779786;29;20471;-85
2022/05/01 03:44:05;;;;;;;11.07;6.78;;;;;;;;;;4783133;29;20872;-85
2022/05/01 03:46:30;;;;;;;10.63;6.82;;;;;;;;;;4781696;29;20033;-85
2022/05/01 03:48:56;;;;;;;10.48;6.60;;;;;;;;;;4780458;29;20406;-85
2022/05/01 03:51:21;;;;;;;11.80;7.35;;;;;;;;;;4778855;29;20048;-83
2022/05/01 03:53:47;;;;;;;9.65;7.18;;;;;;;;;;4779427;29;20418;-82
2022/05/01 03:56:13;;;;;;;9.02;6.85;;;;;;;;;;4781365;29;20038;-83
2022/05/01 03:58:38;;;;;;;10.40;6.63;;;;;;;;;;4782386;29;20104;-83
2022/05/01 04:01:03;;;;;;;12.00;6.65;;;;;;;;;;4792556;29;20155;-85
2022/05/01 04:03:29;;;;;;;12.07;6.97;;;;;;;;;;4795960;29;20187;-85
2022/05/01 04:05:54;;;;;;;8.13;5.55;;;;;;;;;;4784623;29;20122;-85
2022/05/01 04:08:20;;;;;;;8.52;6.20;;;;;;;;;;4788802;29;20080;-84
2022/05/01 04:10:46;;;;;;;9.52;6.32;;;;;;;;;;4784621;29;20030;-84
2022/05/01 04:13:13;;;;;;;9.48;6.10;;;;;;;;;;4784015;29;20035;-85
2022/05/01 04:15:39;;;;;;;8.60;6.32;;;;;;;;;;4800694;29;20039;-84
2022/05/01 04:18:05;;;;;;;10.45;6.90;;;;;;;;;;4784323;29;20095;-85
2022/05/01 04:20:32;;;;;;;10.40;7.10;;;;;;;;;;4801788;29;20034;-85
2022/05/01 04:22:59;;;;;;;8.60;6.47;;;;;;;;;;4781594;29;20079;-85
2022/05/01 04:25:27;;;;;;;9.73;6.28;;;;;;;;;;4784377;29;20107;-84
2022/05/01 04:27:57;;;;;;;9.88;6.68;;;;;;;;;;4782268;29;20031;-83
2022/05/01 04:30:24;;;;;;;10.60;7.00;;;;;;;;;;4798321;29;20117;-84
2022/05/01 04:32:54;;;;;;;10.52;7.18;;;;;;;;;;4797521;29;20030;-82
2022/05/01 04:35:32;;;;;;;11.07;7.45;;;;;;;;;;4788315;29;20481;-83
2022/05/01 04:38:07;;;;;;;10.75;7.28;;;;;;;;;;4796132;29;21191;-83
2022/05/01 04:40:39;;;;;;;10.90;7.32;;;;;;;;;;4798914;29;20039;-84
2022/05/01 04:43:07;;;;;;;10.48;7.18;;;;;;;;;;4787015;29;20561;-85
2022/05/01 04:45:35;;;;;;;9.80;7.47;;;;;;;;;;4780214;29;20421;-84
2022/05/01 04:48:02;;;;;;;10.82;6.90;;;;;;;;;;4797771;29;20027;-83
2022/05/01 04:50:28;;;;;;;8.35;5.95;;;;;;;;;;4786372;29;20030;-83
2022/05/01 04:52:54;;;;;;;7.35;5.40;;;;;;;;;;4799346;29;20041;-84
2022/05/01 04:55:19;;;;;;;6.80;5.10;;;;;;;;;;4782218;29;20034;-84
2022/05/01 04:57:45;;;;;;;6.38;4.90;;;;;;;;;;4799957;29;20406;-82
2022/05/01 05:00:11;;;;;;;6.53;4.22;;;;;;;;;;4782306;29;20035;-85
2022/05/01 05:02:38;;;;;;;6.65;4.45;;;;;;;;;;4795455;29;20125;-83
2022/05/01 05:05:08;;;;;;;7.85;5.32;;;;;;;;;;4781263;29;20039;-85
2022/05/01 05:07:33;;;;;;;7.32;5.43;;;;;;;;;;4785478;29;20079;-83
2022/05/01 05:09:59;;;;;;;6.68;4.80;;;;;;;;;;4782039;29;20066;-83
2022/05/01 05:12:25;;;;;;;8.35;4.80;;;;;;;;;;4797045;29;20083;-82
2022/05/01 05:14:52;;;;;;;6.63;4.65;;;;;;;;;;4796661;29;20114;-85
2022/05/01 05:17:22;;;;;;;6.18;4.20;;;;;;;;;;4793207;29;20042;-83
2022/05/01 05:19:48;;;;;;;5.15;3.75;;;;;;;;;;4783902;29;20091;-84
2022/05/01 05:22:14;;;;;;;5.63;3.72;;;;;;;;;;4782714;29;20068;-84
2022/05/01 05:24:39;;;;;;;4.75;3.63;;;;;;;;;;4779872;29;20027;-85
2022/05/01 05:27:05;;;;;;;6.45;4.28;;;;;;;;;;4801587;29;20041;-85
2022/05/01 05:29:30;;;;;;;5.50;4.00;;;;;;;;;;4783298;29;20072;-84
2022/05/01 05:31:56;;;;;;;9.13;4.82;;;;;;;;;;4794257;29;20030;-84
2022/05/01 05:34:21;;;;;;;6.55;4.70;;;;;;;;;;4796643;29;20486;-83
2022/05/01 05:36:47;;;;;;;6.03;4.43;;;;;;;;;;4783761;29;20043;-83
2022/05/01 05:39:13;;;;;;;8.52;4.72;;;;;;;;;;4783326;29;20031;-84
2022/05/01 05:41:38;;;;;;;6.38;4.55;;;;;;;;;;4783683;29;20047;-84
2022/05/01 05:44:04;;;;;;;6.45;4.63;;;;;;;;;;4796933;29;20050;-85
2022/05/01 05:46:29;;;;;;;7.10;4.72;;;;;;;;;;4794902;29;20034;-84
2022/05/01 05:48:55;;;;;;;7.80;4.70;;;;;;;;;;4781257;29;20023;-83
2022/05/01 05:51:20;;;;;;;8.23;5.20;;;;;;;;;;4800121;29;20109;-84
2022/05/01 05:53:46;;;;;;;7.00;5.13;;;;;;;;;;4782488;29;20394;-84
2022/05/01 05:56:11;;;;;;;6.45;4.75;;;;;;;;;;4797949;29;20569;-84
2022/05/01 05:58:36;;;;;;;7.05;5.15;;;;;;;;;;4796109;29;20067;-84
2022/05/01 06:01:02;;;;;;;7.00;5.00;;;;;;;;;;4780726;29;20077;-82
2022/05/01 06:03:34;;;;;;;7.05;5.30;;;;;;;;;;4781523;29;20043;-82
2022/05/01 06:05:59;;;;;;;8.10;5.85;;;;;;;;;;4794701;29;20034;-84
2022/05/01 06:08:25;;;;;;;8.20;5.90;;;;;;;;;;4783896;29;20039;-83
2022/05/01 06:10:50;;;;;;;8.30;5.55;;;;;;;;;;4785100;29;20402;-83
2022/05/01 06:13:18;;;;;;;10.73;6.82;;;;;;;;;;4785598;29;20022;-83
2022/05/01 06:15:43;;;;;;;11.55;8.20;;;;;;;;;;4801725;29;20031;-85
2022/05/01 06:18:10;;;;;;;10.63;7.28;;;;;;;;;;4780977;29;20031;-84
2022/05/01 06:20:36;;;;;;;10.95;8.18;;;;;;;;;;4796011;29;20043;-83
2022/05/01 06:23:01;;;;;;;13.05;8.52;;;;;;;;;;4787095;29;20035;-83
2022/05/01 06:25:27;;;;;;;11.52;7.40;;;;;;;;;;4783619;29;20035;-84
2022/05/01 06:27:52;;;;;;;13.18;8.25;;;;;;;;;;4796661;29;20039;-83
2022/05/01 06:30:18;;;;;;;10.75;7.97;;;;;;;;;;4782851;29;20590;-82
2022/05/01 06:32:44;;;;;;;13.23;8.35;;;;;;;;;;4781085;29;20027;-84
2022/05/01 06:35:10;;;;;;;11.15;8.07;;;;;;;;;;4798258;29;20038;-84
2022/05/01 06:37:36;;;;;;;11.63;8.30;;;;;;;;;;4797016;29;20039;-84
2022/05/01 06:40:03;;;;;;;11.23;7.63;;;;;;;;;;4784388;29;20031;-82
2022/05/01 06:42:29;;;;;;;11.27;8.23;;;;;;;;;;4798233;29;20071;-82
2022/05/01 06:44:55;;;;;;;11.68;7.72;;;;;;;;;;4781595;29;20569;-84
2022/05/01 06:47:42;;;;;;;11.82;7.88;;;;;;;;;;4781268;29;20056;-82
2022/05/01 06:50:07;;;;;;;10.82;8.07;;;;;;;;;;4795858;29;20504;-83
2022/05/01 06:52:33;;;;;;;12.85;7.95;;;;;;;;;;4783023;29;20072;-81
2022/05/01 06:54:59;;;;;;;12.10;8.18;;;;;;;;;;4783492;29;20054;-82
2022/05/01 06:57:25;;;;;;;12.00;8.25;;;;;;;;;;4783821;29;20405;-84
2022/05/01 06:59:50;;;;;;;12.18;8.00;;;;;;;;;;4777260;29;20074;-82
2022/05/01 07:02:16;;;;;;;11.93;8.30;;;;;;;;;;4787885;29;20455;-83
2022/05/01 07:04:44;;;;;;;11.52;8.30;;;;;;;;;;4776294;29;20517;-83
2022/05/01 07:07:10;;;;;;;12.00;8.32;;;;;;;;;;4781573;29;20031;-85
2022/05/01 07:09:35;;;;;;;13.27;8.77;;;;;;;;;;4786284;29;20030;-83
2022/05/01 07:12:00;;;;;;;11.27;7.57;;;;;;;;;;4797729;29;20066;-82
2022/05/01 07:14:26;;;;;;;12.60;7.57;;;;;;;;;;4793686;29;20031;-82
2022/05/01 07:16:51;;;;;;;9.95;7.43;;;;;;;;;;4798864;29;20069;-85
2022/05/01 07:19:17;;;;;;;11.00;8.23;;;;;;;;;;4792861;29;20073;-84
2022/05/01 07:21:42;;;;;;;10.98;8.00;;;;;;;;;;4785812;29;20501;-84
2022/05/01 07:24:07;;;;;;;10.88;7.93;;;;;;;;;;4786992;29;20035;-84
2022/05/01 07:26:34;;;;;;;13.32;8.40;;;;;;;;;;4785203;29;20023;-84
2022/05/01 07:29:00;;;;;;;13.57;8.23;;;;;;;;;;4792634;29;20146;-83
2022/05/01 07:31:26;;;;;;;14.57;8.73;;;;;;;;;;4795628;29;20041;-83
2022/05/01 07:33:52;;;;;;;12.63;8.50;;;;;;;;;;4780363;29;20490;-84
2022/05/01 07:36:19;;;;;;;11.77;8.60;;;;;;;;;;4783122;29;20083;-82
2022/05/01 07:38:49;;;;;;;11.25;7.82;;;;;;;;;;4781539;29;20027;-82
2022/05/01 07:41:19;;;;;;;13.27;8.82;;;;;;;;;;4782798;29;20031;-82
2022/05/01 07:43:53;;;;;;;11.98;8.15;;;;;;;;;;4785566;29;20093;-82
2022/05/01 07:46:19;;;;;;;12.50;8.27;;;;;;;;;;4795809;29;20104;-83
2022/05/01 07:48:50;;;;;;;11.82;8.63;;;;;;;;;;4798486;29;20022;-85
2022/05/01 07:51:16;;;;;;;12.18;8.50;;;;;;;;;;4804749;29;20041;-81
2022/05/01 07:53:47;;;;;;;14.05;8.75;;;;;;;;;;4801465;29;20030;-83
2022/05/01 07:56:12;;;;;;;15.27;9.35;;;;;;;;;;4785041;29;20031;-82
2022/05/01 07:58:46;;;;;;;12.30;8.52;;;;;;;;;;4790697;29;20509;-82
2022/05/01 08:01:23;;;;;;;13.32;8.85;;;;;;;;;;4787173;29;20054;-82
2022/05/01 08:06:34;;;;;;;12.18;7.97;;;;;;;;;;4799653;29;20200;-82
2022/05/01 08:08:59;;;;;;;13.40;8.65;;;;;;;;;;4790694;29;20101;-84
2022/05/01 08:11:25;;;;;;;12.35;7.75;;;;;;;;;;4806578;29;20027;-84
2022/05/01 08:13:51;;;;;;;10.65;7.00;;;;;;;;;;4787454;29;20031;-82
2022/05/01 08:16:17;;;;;;;10.07;6.90;;;;;;;;;;4803842;29;20030;-82
2022/05/01 08:21:29;;;;;;;10.93;7.03;;;;;;;;;;4797140;29;20112;-83
2022/05/01 08:23:54;;;;;;;9.60;6.38;;;;;;;;;;4802954;29;20042;-83
2022/05/01 08:26:21;;;;;;;9.35;6.25;;;;;;;;;;4800256;29;20588;-82
2022/05/01 08:28:46;;;;;;;11.98;5.88;;;;;;;;;;4806214;29;20635;-81
2022/05/01 08:31:13;;;;;;;10.35;7.15;;;;;;;;;;4800336;29;20054;-82
2022/05/01 08:33:38;;;;;;;9.40;6.80;;;;;;;;;;4797960;29;20043;-82
2022/05/01 08:36:06;;;;;;;10.93;6.55;;;;;;;;;;4806173;29;20042;-82
2022/05/01 08:38:32;;;;;;;10.20;6.55;;;;;;;;;;4801835;29;20047;-83
2022/05/01 08:40:58;;;;;;;10.48;6.65;;;;;;;;;;4790519;29;20043;-81
2022/05/01 08:43:24;;;;;;;10.07;6.50;;;;;;;;;;4786653;29;20065;-80
2022/05/01 08:46:11;;;;;;;10.13;6.80;;;;;;;;;;4788851;29;20030;-81
2022/05/01 08:48:44;;;;;;;11.20;6.82;;;;;;;;;;4801855;29;20502;-83
2022/05/01 08:51:13;;;;;;;8.82;6.28;;;;;;;;;;4797492;29;20486;-84
2022/05/01 08:53:41;;;;;;;10.13;7.07;;;;;;;;;;4799262;29;20402;-80
2022/05/01 08:56:07;;;;;;;10.90;6.78;;;;;;;;;;4792601;29;20083;-82
2022/05/01 08:58:34;;;;;;;11.10;6.70;;;;;;;;;;4785275;29;20039;-81
2022/05/01 09:01:01;;;;;;;35.30;8.13;;;;;;;;;;4788703;29;20042;-84
2022/05/01 09:03:34;;;;;;;12.27;6.40;;;;;;;;;;4796012;29;20036;-82
2022/05/01 09:05:59;;;;;;;8.73;5.65;;;;;;;;;;4784894;29;20075;-79
2022/05/01 09:08:29;;;;;;;8.45;5.63;;;;;;;;;;4799394;29;20056;-81
2022/05/01 09:10:55;;;;;;;10.23;5.80;;;;;;;;;;4799408;29;20045;-79
2022/05/01 09:13:30;;;;;;;9.98;5.32;;;;;;;;;;4788444;29;20027;-81
2022/05/01 09:16:17;;;;;;;7.93;5.68;;;;;;;;;;4793719;29;20066;-82
2022/05/01 09:18:47;;;;;;;6.32;3.30;;;;;;;;;;4795781;29;20066;-82
2022/05/01 09:21:13;;;;;;;4.75;3.00;;;;;;;;;;4780095;29;20444;-82
2022/05/01 09:24:00;;;;;;;;;;;;;;;;;;;;;
2022/05/01 09:26:26;;;;;;;5.00;3.10;;;;;;;;;;4785508;29;20047;-82
2022/05/01 09:29:07;;;;;;;4.72;3.08;;;;;;;;;;4797950;29;20029;-81
2022/05/01 09:32:07;;;;;;;10.02;5.10;;;;;;;;;;4782285;29;20084;-81
2022/05/01 09:34:37;;;;;;;18.90;5.25;;;;;;;;;;4798218;29;20045;-82
2022/05/01 09:37:44;;;;;;;5.38;4.00;;;;;;;;;;4785020;29;20035;-82
2022/05/01 09:40:10;;;;;;;5.65;4.00;;;;;;;;;;4798944;29;20130;-87
2022/05/01 09:42:36;;;;;;;7.07;4.05;;;;;;;;;;4795860;29;20402;-82
2022/05/01 09:45:11;;;;;;;7.35;4.15;;;;;;;;;;4786496;29;20050;-80
2022/05/01 09:47:41;;;;;;;7.65;4.85;;;;;;;;;;4797641;29;20027;-82
2022/05/01 09:50:13;;;;;;;6.15;3.90;;;;;;;;;;4782059;29;20027;-82
2022/05/01 09:52:58;;;;;;;6.47;4.50;;;;;;;;;;4796080;29;20031;-80
2022/05/01 09:55:25;;;;;;;6.80;4.30;;;;;;;;;;4785537;29;20272;-81
2022/05/01 09:58:11;;;;;;;6.72;4.68;;;;;;;;;;4796684;29;20073;-82
2022/05/01 10:00:46;;;;;;;6.45;4.30;;;;;;;;;;4789719;29;20039;-83
2022/05/01 10:03:29;;;;;;;7.57;4.72;;;;;;;;;;4797943;29;20066;-81
2022/05/01 10:05:57;;;;;;;8.38;4.57;;;;;;;;;;4798074;29;20116;-85
2022/05/01 10:08:23;;;;;;;5.63;4.13;;;;;;;;;;4783344;29;20166;-83
2022/05/01 10:10:57;;;;;;;6.85;4.40;;;;;;;;;;4803068;29;22515;-82
2022/05/01 10:13:27;;;;;;;7.93;4.28;;;;;;;;;;4801506;29;20039;-82
2022/05/01 10:15:53;;;;;;;6.35;3.97;;;;;;;;;;4789314;29;20110;-82
2022/05/01 10:18:19;;;;;;;7.75;4.00;;;;;;;;;;4801436;29;20192;-82
2022/05/01 10:20:44;;;;;;;6.57;3.50;;;;;;;;;;4785506;29;20585;-80
2022/05/01 10:23:11;;;;;;;7.55;3.58;;;;;;;;;;4795746;29;20045;-86
2022/05/01 10:25:41;;;;;;;5.10;3.70;;;;;;;;;;4782827;29;20058;-81
2022/05/01 10:28:24;;;;;;;7.32;3.97;;;;;;;;;;4802571;29;20030;-79
2022/05/01 10:34:19;;;;;;;6.68;4.13;;;;;;;;;;4781208;29;20103;-85
2022/05/01 10:37:09;;;;;;;6.45;3.50;;;;;;;;;;4801959;29;20096;-84
2022/05/01 10:39:38;;;;;;;4.90;3.38;;;;;;;;;;4797850;29;20099;-80
2022/05/01 10:42:04;;;;;;;6.13;4.00;;;;;;;;;;4803421;29;20031;-82
2022/05/01 10:44:35;;;;;;;5.70;3.75;;;;;;;;;;4797917;29;20557;-86
2022/05/01 10:47:05;;;;;;;4.95;3.47;;;;;;;;;;4780511;29;20038;-82
2022/05/01 10:49:36;;;;;;;6.45;4.05;;;;;;;;;;4776999;29;20129;-81
2022/05/01 10:52:22;;;;;;;7.50;4.40;;;;;;;;;;4797883;29;20034;-80
2022/05/01 10:54:52;;;;;;;6.63;3.80;;;;;;;;;;4794370;29;20183;-82
2022/05/01 10:57:18;;;;;;;6.68;4.07;;;;;;;;;;4784913;29;20110;-81
2022/05/01 11:00:21;;;;;;;6.68;3.90;;;;;;;;;;4799493;29;20490;-86
2022/05/01 11:03:24;;;;;;;6.70;4.20;;;;;;;;;;4802832;29;20039;-82
2022/05/01 11:05:54;;;;;;;6.72;3.72;;;;;;;;;;4763996;29;20493;-80
2022/05/01 11:08:23;;;;;;;5.88;4.03;;;;;;;;;;4801427;29;20037;-80
2022/05/01 11:10:50;;;;;;;8.48;4.07;;;;;;;;;;4796074;29;20077;-79
2022/05/01 11:13:22;;;;;;;6.97;4.22;;;;;;;;;;4790954;29;20049;-82
2022/05/01 11:15:55;;;;;;;6.97;4.28;;;;;;;;;;4785441;29;20386;-82
2022/05/01 11:18:54;;;;;;;6.85;3.78;;;;;;;;;;4778109;29;20861;-83
2022/05/01 11:21:23;;;;;;;5.60;3.58;;;;;;;;;;4794371;29;20105;-86
2022/05/01 11:24:06;;;;;;;5.63;3.80;;;;;;;;;;4792121;29;20058;-83
2022/05/01 11:27:17;;;;;;;6.27;3.90;;;;;;;;;;4786842;29;20134;-82
2022/05/01 11:30:07;;;;;;;6.28;3.80;;;;;;;;;;4794247;29;20517;-86
2022/05/01 11:32:47;;;;;;;6.13;4.28;;;;;;;;;;4790474;29;20660;-81
2022/05/01 11:35:56;;;;;;;5.50;3.85;;;;;;;;;;4792983;29;20027;-80
2022/05/01 11:38:55;;;;;;;6.75;4.00;;;;;;;;;;4776346;29;20070;-81
2022/05/01 11:42:00;;;;;;;7.45;4.00;;;;;;;;;;4778318;29;20035;-81
2022/05/01 11:44:27;;;;;;;7.68;4.07;;;;;;;;;;4778137;29;20058;-86
2022/05/01 11:46:52;;;;;;;7.45;4.20;;;;;;;;;;4775471;29;20049;-84
2022/05/01 11:49:18;;;;;;;5.85;4.07;;;;;;;;;;4773163;29;20035;-81
2022/05/01 11:51:46;;;;;;;6.13;3.50;;;;;;;;;;4777490;29;20043;-82
2022/05/01 11:54:14;;;;;;;6.70;4.20;;;;;;;;;;4777862;29;20045;-83
2022/05/01 12:02:35;;;;;;;6.80;4.07;;;;;;;;;;4787171;29;20042;-80
2022/05/01 12:05:04;;;;;;;5.47;4.03;;;;;;;;;;4790558;29;20034;-86
2022/05/01 12:07:31;;;;;;;7.07;4.40;;;;;;;;;;4764861;29;20043;-81
2022/05/01 12:09:57;;;;;;;6.78;4.43;;;;;;;;;;4763252;29;20083;-86
2022/05/01 12:12:29;;;;;;;6.85;4.40;;;;;;;;;;4767742;29;20077;-85
2022/05/01 12:14:55;;;;;;;6.20;4.35;;;;;;;;;;4764916;29;20073;-82
2022/05/01 12:17:21;;;;;;;6.65;4.38;;;;;;;;;;4782933;29;20043;-84
2022/05/01 12:19:48;;;;;;;7.15;4.68;;;;;;;;;;4765312;29;20885;-82
2022/05/01 12:22:19;;;;;;;6.57;4.47;;;;;;;;;;4785086;29;20035;-85
2022/05/01 12:24:45;;;;;;;7.40;4.35;;;;;;;;;;4767033;29;20406;-85
2022/05/01 12:27:12;;;;;;;6.10;4.35;;;;;;;;;;4784970;29;20027;-82
2022/05/01 12:29:41;;;;;;;7.15;4.75;;;;;;;;;;4779852;29;20819;-82
2022/05/01 12:32:06;;;;;;;7.40;4.55;;;;;;;;;;4766736;29;20023;-83
2022/05/01 12:34:44;;;;;;;5.97;3.95;;;;;;;;;;4781613;29;20056;-83
2022/05/01 12:37:15;;;;;;;6.40;4.05;;;;;;;;;;4769091;29;20080;-83
2022/05/01 12:39:42;;;;;;;7.18;4.68;;;;;;;;;;4766781;29;20087;-82
2022/05/01 12:45:14;;;;;;;7.28;4.63;;;;;;;;;;4785461;29;20062;-82
2022/05/01 12:47:53;;;;;;;7.17;4.60;;;;;;;;;;4767907;29;20058;-81
2022/05/01 12:50:18;;;;;;;7.45;4.72;;;;;;;;;;4786289;29;20035;-82
2022/05/01 12:52:45;;;;;;;8.77;5.10;;;;;;;;;;4770852;29;20045;-82
2022/05/01 12:55:19;;;;;;;6.68;4.43;;;;;;;;;;4776117;29;20294;-85
2022/05/01 12:58:02;;;;;;;7.25;4.60;;;;;;;;;;4788702;29;20465;-83
2022/05/01 13:00:49;;;;;;;8.00;4.38;;;;;;;;;;4781656;29;20615;-82
2022/05/01 13:03:26;;;;;;;6.70;4.18;;;;;;;;;;4785155;29;20060;-82
2022/05/01 13:06:09;;;;;;;7.13;4.57;;;;;;;;;;4767648;29;20122;-82
2022/05/01 13:08:37;;;;;;;6.47;4.60;;;;;;;;;;4786706;29;20130;-82
2022/05/01 13:11:09;;;;;;;7.68;4.28;;;;;;;;;;4771433;29;20859;-82
2022/05/01 13:14:00;;;;;;;7.60;4.75;;;;;;;;;;4788060;29;20157;-81
2022/05/01 13:16:31;;;;;;;8.63;4.70;;;;;;;;;;4788542;29;20213;-82
2022/05/01 13:19:12;;;;;;;6.40;4.55;;;;;;;;;;4787320;29;20080;-82
2022/05/01 13:21:50;;;;;;;8.25;4.95;;;;;;;;;;4773866;29;20030;-82
2022/05/01 13:24:29;;;;;;;6.53;4.65;;;;;;;;;;4787617;29;20565;-80
2022/05/01 13:26:55;;;;;;;7.00;4.63;;;;;;;;;;4771360;29;20042;-82
2022/05/01 13:29:20;;;;;;;7.82;5.03;;;;;;;;;;4790660;29;20278;-83
2022/05/01 13:31:47;;;;;;;7.45;4.13;;;;;;;;;;4796907;29;20030;-83
2022/05/01 13:34:12;;;;;;;9.43;4.63;;;;;;;;;;4791235;29;20035;-81
2022/05/01 13:36:38;;;;;;;6.82;4.72;;;;;;;;;;4787551;29;20053;-82
2022/05/01 13:39:05;;;;;;;5.78;4.38;;;;;;;;;;4794461;29;20779;-81
2022/05/01 13:47:04;;;;;;;6.60;4.63;;;;;;;;;;4788450;29;20099;-81
2022/05/01 13:49:30;;;;;;;7.28;5.30;;;;;;;;;;4789491;29;20034;-81
2022/05/01 13:51:56;;;;;;;7.75;4.63;;;;;;;;;;4792271;29;20042;-82
2022/05/01 13:54:22;;;;;;;6.90;4.90;;;;;;;;;;4789217;29;20035;-81
2022/05/01 13:56:47;;;;;;;7.68;5.00;;;;;;;;;;4791281;29;20764;-82
2022/05/01 13:59:14;;;;;;;6.75;4.60;;;;;;;;;;4768907;29;20055;-82
2022/05/01 14:01:40;;;;;;;7.28;4.40;;;;;;;;;;4790412;29;20110;-86
2022/05/01 14:04:06;;;;;;;6.80;4.70;;;;;;;;;;4788285;29;20044;-82
2022/05/01 14:06:31;;;;;;;7.05;4.80;;;;;;;;;;4768516;29;20035;-82
2022/05/01 14:08:57;;;;;;;7.15;4.85;;;;;;;;;;4774029;29;20031;-82
2022/05/01 14:11:22;;;;;;;7.28;4.93;;;;;;;;;;4794560;29;20497;-86
2022/05/01 14:13:48;;;;;;;6.65;4.63;;;;;;;;;;4788623;29;20035;-81
2022/05/01 14:16:14;;;;;;;7.35;4.07;;;;;;;;;;4770991;29;20459;-85
2022/05/01 14:18:41;;;;;;;6.43;4.28;;;;;;;;;;4791325;29;20035;-84
2022/05/01 14:21:07;;;;;;;7.05;4.63;;;;;;;;;;4794059;29;20802;-83
2022/05/01 14:23:39;;;;;;;6.20;4.60;;;;;;;;;;4770459;29;20031;-82
2022/05/01 14:26:05;;;;;;;;;;;;;;;;;;4787316;29;20050;-83
2022/05/01 14:28:31;;;;;;;7.47;4.68;;;;;;;;;;4766097;29;19921;-84
2022/05/01 14:31:16;;;;;;;6.28;4.25;;;;;;;;;;4787033;29;20096;-82
2022/05/01 14:33:47;;;;;;;5.82;4.38;;;;;;;;;;4786968;29;20035;-82
2022/05/01 14:36:21;;;;;;;6.40;4.40;;;;;;;;;;4787161;29;20094;-82
2022/05/01 14:39:13;;;;;;;7.32;4.68;;;;;;;;;;4771000;29;20089;-84
2022/05/01 14:41:41;;;;;;;6.80;4.45;;;;;;;;;;4788683;29;20694;-83
2022/05/01 14:44:08;;;;;;;6.15;4.32;;;;;;;;;;4769181;29;20050;-83
2022/05/01 14:46:40;;;;;;;6.47;3.83;;;;;;;;;;4787476;29;20050;-84
2022/05/01 14:49:38;;;;;;;9.13;4.20;;;;;;;;;;4784195;29;20507;-81
2022/05/01 14:52:06;;;;;;;5.40;4.00;;;;;;;;;;4776350;29;20042;-81
2022/05/01 14:54:34;;;;;;;6.65;4.65;;;;;;;;;;4794867;29;20035;-85
2022/05/01 14:57:04;;;;;;;6.88;4.88;;;;;;;;;;4793225;29;20491;-81
2022/05/01 15:08:30;;;;;;;6.38;4.22;;;;;;;;;;4793477;29;20046;-85
2022/05/01 15:11:05;;;;;;;7.43;4.28;;;;;;;;;;4793817;29;20046;-83
2022/05/01 15:13:30;;;;;;;8.57;4.90;;;;;;;;;;4790796;29;22063;-81
2022/05/01 15:16:34;;;;;;;5.72;4.00;;;;;;;;;;4788803;29;20035;-85
2022/05/01 15:22:59;;;;;;;;;;;;;;;;;;;;;
2022/05/01 15:25:33;;;;;;;;;;;;;;;;;;4788469;29;20405;-82
2022/05/01 15:28:11;;;;;;;6.90;4.07;;;;;;;;;;4781725;29;19974;-83
2022/05/01 15:31:05;;;;;;;6.60;3.95;;;;;;;;;;4783925;29;20043;-84
2022/05/01 15:36:35;;;;;;;;;;;;;;;;;;;;;
2022/05/01 15:40:05;;;;;;;6.10;4.30;;;;;;;;;;4793811;29;20031;-84
2022/05/01 15:42:40;;;;;;;5.18;3.83;;;;;;;;;;4738416;30;20056;-85
2022/05/01 15:45:06;;;;;;;6.43;3.97;;;;;;;;;;4725633;30;20792;-86
2022/05/01 15:47:37;;;;;;;6.03;4.63;;;;;;;;;;4792778;29;20502;-86
2022/05/01 15:56:11;;;;;;;5.68;4.03;;;;;;;;;;4791986;29;20168;-84